GMTT/TNG METAR and TAF weather

Enter ICAO airport designator
Station Type Date Time Source
GMTT METAR 2022/09/28 20:00 UTC NOAA

GMTT 282000Z 24007KT 220V360 9999 SCT030 20/18 Q1016 NOSIG


Station Type Date Time Source
GMTT Decoded METAR 2022/09/28 20:00 UTC NOAA

Tanger Aerodrome , Morocco (GMTT) 35-44N 005-54W 21M
Sep 28, 2022 - 04:00 PM EDT / 2022.09.28 2000 UTC
Wind: from the WSW (240 degrees) at 8 MPH (7 KT) (direction variable):0
Visibility: greater than 7 mile(s):0
Sky conditions: partly cloudy
Temperature: 68 F (20 C)
Dew Point: 64 F (18 C)
Relative Humidity: 88%
Pressure (altimeter): 30.00 in. Hg (1016 hPa)
ob: GMTT 282000Z 24007KT 220V360 9999 SCT030 20/18 Q1016 NOSIG
cycle: 20

Station Type Date Time Source
GMTT TAF 2022/09/28 18:30 UTC NOAA

TAF TAF GMTT 281700Z 2818/2924 22012KT 9999 FEW013 SCT020 PROB40
TEMPO 2818/2918 23017G30KT

Example: see airport list